sensor_id;sensor_type;location;lat;lon;timestamp;temperature;humidity
26990;DHT22;14537;47.788;11.858;2022-12-10T00:01:43;0.00;99.90
26990;DHT22;14537;47.788;11.858;2022-12-10T00:04:10;0.00;99.90
26990;DHT22;14537;47.788;11.858;2022-12-10T00:06:37;0.00;99.90
26990;DHT22;14537;47.788;11.858;2022-12-10T00:09:06;-0.10;99.90
26990;DHT22;14537;47.788;11.858;2022-12-10T00:11:32;0.00;99.90
26990;DHT22;14537;47.788;11.858;2022-12-10T00:13:58;0.00;99.90
26990;DHT22;14537;47.788;11.858;2022-12-10T00:16:26;0.00;99.90
26990;DHT22;14537;47.788;11.858;2022-12-10T00:18:53;0.00;99.90
26990;DHT22;14537;47.788;11.858;2022-12-10T00:21:25;0.00;99.90
26990;DHT22;14537;47.788;11.858;2022-12-10T00:23:51;0.00;99.90
26990;DHT22;14537;47.788;11.858;2022-12-10T00:26:23;0.00;99.90
26990;DHT22;14537;47.788;11.858;2022-12-10T00:28:50;0.00;99.90
26990;DHT22;14537;47.788;11.858;2022-12-10T00:31:19;0.00;99.90
26990;DHT22;14537;47.788;11.858;2022-12-10T00:33:45;0.00;99.90
26990;DHT22;14537;47.788;11.858;2022-12-10T00:36:20;0.00;99.90
26990;DHT22;14537;47.788;11.858;2022-12-10T00:38:47;0.00;99.90
26990;DHT22;14537;47.788;11.858;2022-12-10T00:41:13;0.00;99.90
26990;DHT22;14537;47.788;11.858;2022-12-10T00:43:40;0.00;99.90
26990;DHT22;14537;47.788;11.858;2022-12-10T00:46:06;-0.10;99.90
26990;DHT22;14537;47.788;11.858;2022-12-10T00:48:32;0.00;99.90
26990;DHT22;14537;47.788;11.858;2022-12-10T00:51:03;0.10;99.90
26990;DHT22;14537;47.788;11.858;2022-12-10T00:53:30;0.10;99.90
26990;DHT22;14537;47.788;11.858;2022-12-10T00:55:56;0.00;99.90
26990;DHT22;14537;47.788;11.858;2022-12-10T00:58:25;0.00;99.90
26990;DHT22;14537;47.788;11.858;2022-12-10T01:00:51;0.00;99.90
26990;DHT22;14537;47.788;11.858;2022-12-10T01:03:17;0.00;99.90
26990;DHT22;14537;47.788;11.858;2022-12-10T01:05:42;0.00;99.90
26990;DHT22;14537;47.788;11.858;2022-12-10T01:08:08;0.00;99.90
26990;DHT22;14537;47.788;11.858;2022-12-10T01:10:34;0.00;99.90
26990;DHT22;14537;47.788;11.858;2022-12-10T01:12:59;0.00;99.90
26990;DHT22;14537;47.788;11.858;2022-12-10T01:15:25;0.00;99.90
26990;DHT22;14537;47.788;11.858;2022-12-10T01:17:51;0.10;99.90
26990;DHT22;14537;47.788;11.858;2022-12-10T01:20:16;0.00;99.90
26990;DHT22;14537;47.788;11.858;2022-12-10T01:22:42;0.00;99.90
26990;DHT22;14537;47.788;11.858;2022-12-10T01:25:08;0.00;99.90
26990;DHT22;14537;47.788;11.858;2022-12-10T01:27:34;0.10;99.90
26990;DHT22;14537;47.788;11.858;2022-12-10T01:29:59;0.10;99.90
26990;DHT22;14537;47.788;11.858;2022-12-10T01:32:25;0.10;99.90
26990;DHT22;14537;47.788;11.858;2022-12-10T01:34:50;0.10;99.90
26990;DHT22;14537;47.788;11.858;2022-12-10T01:37:16;0.00;99.90
26990;DHT22;14537;47.788;11.858;2022-12-10T01:39:42;0.00;99.90
26990;DHT22;14537;47.788;11.858;2022-12-10T01:42:12;0.00;99.90
26990;DHT22;14537;47.788;11.858;2022-12-10T01:47:07;0.00;99.90
26990;DHT22;14537;47.788;11.858;2022-12-10T01:49:38;0.10;99.90
26990;DHT22;14537;47.788;11.858;2022-12-10T01:52:06;0.10;99.90
26990;DHT22;14537;47.788;11.858;2022-12-10T01:54:38;0.10;99.90
26990;DHT22;14537;47.788;11.858;2022-12-10T01:57:19;0.00;99.90
26990;DHT22;14537;47.788;11.858;2022-12-10T01:59:48;0.00;99.90
26990;DHT22;14537;47.788;11.858;2022-12-10T02:12:48;-0.10;99.90
26990;DHT22;14537;47.788;11.858;2022-12-10T02:15:49;0.00;99.90
26990;DHT22;14537;47.788;11.858;2022-12-10T02:18:20;0.00;99.90
26990;DHT22;14537;47.788;11.858;2022-12-10T02:20:50;0.00;99.90
26990;DHT22;14537;47.788;11.858;2022-12-10T02:23:33;-0.10;99.90
26990;DHT22;14537;47.788;11.858;2022-12-10T02:26:03;-0.10;99.90
26990;DHT22;14537;47.788;11.858;2022-12-10T02:31:22;0.00;99.90
26990;DHT22;14537;47.788;11.858;2022-12-10T02:33:52;0.10;99.90
26990;DHT22;14537;47.788;11.858;2022-12-10T02:36:21;0.10;99.90
26990;DHT22;14537;47.788;11.858;2022-12-10T02:38:49;0.00;99.90
26990;DHT22;14537;47.788;11.858;2022-12-10T02:41:22;0.00;99.90
26990;DHT22;14537;47.788;11.858;2022-12-10T02:43:51;0.10;99.90
26990;DHT22;14537;47.788;11.858;2022-12-10T02:46:18;0.20;99.90
26990;DHT22;14537;47.788;11.858;2022-12-10T02:48:45;0.20;99.90
26990;DHT22;14537;47.788;11.858;2022-12-10T02:51:12;0.10;99.90
26990;DHT22;14537;47.788;11.858;2022-12-10T02:53:44;0.10;99.90
26990;DHT22;14537;47.788;11.858;2022-12-10T02:56:36;0.10;99.90
26990;DHT22;14537;47.788;11.858;2022-12-10T02:59:47;0.10;99.90
26990;DHT22;14537;47.788;11.858;2022-12-10T03:02:42;0.10;99.90
26990;DHT22;14537;47.788;11.858;2022-12-10T03:05:20;0.10;99.90
26990;DHT22;14537;47.788;11.858;2022-12-10T03:13:21;-0.20;99.90
26990;DHT22;14537;47.788;11.858;2022-12-10T03:15:48;-0.20;99.90
26990;DHT22;14537;47.788;11.858;2022-12-10T03:18:17;-0.20;99.90
26990;DHT22;14537;47.788;11.858;2022-12-10T03:20:46;-0.30;99.90
26990;DHT22;14537;47.788;11.858;2022-12-10T03:23:15;-0.30;99.90
26990;DHT22;14537;47.788;11.858;2022-12-10T03:25:43;-0.30;99.90
26990;DHT22;14537;47.788;11.858;2022-12-10T03:28:10;-0.40;99.90
26990;DHT22;14537;47.788;11.858;2022-12-10T03:30:37;-0.50;99.90
26990;DHT22;14537;47.788;11.858;2022-12-10T03:33:04;-0.40;99.90
26990;DHT22;14537;47.788;11.858;2022-12-10T03:35:31;-0.40;99.90
26990;DHT22;14537;47.788;11.858;2022-12-10T03:37:57;-0.30;99.90
26990;DHT22;14537;47.788;11.858;2022-12-10T03:40:24;-0.20;99.90
26990;DHT22;14537;47.788;11.858;2022-12-10T03:42:50;-0.10;99.90
26990;DHT22;14537;47.788;11.858;2022-12-10T03:45:16;-0.10;99.90
26990;DHT22;14537;47.788;11.858;2022-12-10T03:47:42;-0.10;99.90
26990;DHT22;14537;47.788;11.858;2022-12-10T03:50:09;0.00;99.90
26990;DHT22;14537;47.788;11.858;2022-12-10T03:52:35;-0.10;99.90
26990;DHT22;14537;47.788;11.858;2022-12-10T03:55:00;-0.10;99.90
26990;DHT22;14537;47.788;11.858;2022-12-10T03:57:26;-0.10;99.90
26990;DHT22;14537;47.788;11.858;2022-12-10T03:59:52;-0.10;99.90
26990;DHT22;14537;47.788;11.858;2022-12-10T04:02:18;-0.10;99.90
26990;DHT22;14537;47.788;11.858;2022-12-10T04:04:44;-0.10;99.90
26990;DHT22;14537;47.788;11.858;2022-12-10T04:07:09;-0.10;99.90
26990;DHT22;14537;47.788;11.858;2022-12-10T04:09:35;-0.10;99.90
26990;DHT22;14537;47.788;11.858;2022-12-10T04:12:01;0.00;99.90
26990;DHT22;14537;47.788;11.858;2022-12-10T04:14:27;0.00;99.90
26990;DHT22;14537;47.788;11.858;2022-12-10T04:17:11;-0.10;99.90
26990;DHT22;14537;47.788;11.858;2022-12-10T04:19:37;-0.10;99.90
26990;DHT22;14537;47.788;11.858;2022-12-10T04:22:03;-0.10;99.90
26990;DHT22;14537;47.788;11.858;2022-12-10T04:24:52;0.00;99.90
26990;DHT22;14537;47.788;11.858;2022-12-10T04:27:38;0.00;99.90
26990;DHT22;14537;47.788;11.858;2022-12-10T04:30:07;0.00;99.90
26990;DHT22;14537;47.788;11.858;2022-12-10T04:32:33;0.00;99.90
26990;DHT22;14537;47.788;11.858;2022-12-10T04:34:58;-0.10;99.90
26990;DHT22;14537;47.788;11.858;2022-12-10T04:37:25;-0.10;99.90
26990;DHT22;14537;47.788;11.858;2022-12-10T04:39:52;-0.10;99.90
26990;DHT22;14537;47.788;11.858;2022-12-10T04:42:18;-0.10;99.90
26990;DHT22;14537;47.788;11.858;2022-12-10T04:44:44;-0.10;99.90
26990;DHT22;14537;47.788;11.858;2022-12-10T04:47:10;-0.10;99.90
26990;DHT22;14537;47.788;11.858;2022-12-10T04:49:36;-0.10;99.90
26990;DHT22;14537;47.788;11.858;2022-12-10T04:52:03;-0.10;99.90
26990;DHT22;14537;47.788;11.858;2022-12-10T04:54:29;-0.20;99.90
26990;DHT22;14537;47.788;11.858;2022-12-10T04:56:55;-0.20;99.90
26990;DHT22;14537;47.788;11.858;2022-12-10T04:59:21;-0.10;99.90
26990;DHT22;14537;47.788;11.858;2022-12-10T05:01:46;-0.10;99.90
26990;DHT22;14537;47.788;11.858;2022-12-10T05:04:14;-0.10;99.90
26990;DHT22;14537;47.788;11.858;2022-12-10T05:06:40;0.00;99.90
26990;DHT22;14537;47.788;11.858;2022-12-10T05:09:06;0.00;99.90
26990;DHT22;14537;47.788;11.858;2022-12-10T05:11:32;0.00;99.90
26990;DHT22;14537;47.788;11.858;2022-12-10T05:13:58;0.00;99.90
26990;DHT22;14537;47.788;11.858;2022-12-10T05:16:27;-0.10;99.90
26990;DHT22;14537;47.788;11.858;2022-12-10T05:18:54;0.00;99.90
26990;DHT22;14537;47.788;11.858;2022-12-10T05:21:21;0.00;99.90
26990;DHT22;14537;47.788;11.858;2022-12-10T05:23:49;-0.10;99.90
26990;DHT22;14537;47.788;11.858;2022-12-10T05:28:50;-0.10;99.90
26990;DHT22;14537;47.788;11.858;2022-12-10T05:31:25;-0.10;99.90
26990;DHT22;14537;47.788;11.858;2022-12-10T05:33:52;-0.10;99.90
26990;DHT22;14537;47.788;11.858;2022-12-10T05:36:20;-0.10;99.90
26990;DHT22;14537;47.788;11.858;2022-12-10T05:38:46;-0.10;99.90
26990;DHT22;14537;47.788;11.858;2022-12-10T05:41:33;-0.10;99.90
26990;DHT22;14537;47.788;11.858;2022-12-10T05:43:59;-0.10;99.90
26990;DHT22;14537;47.788;11.858;2022-12-10T05:46:27;-0.10;99.90
26990;DHT22;14537;47.788;11.858;2022-12-10T05:48:53;-0.10;99.90
26990;DHT22;14537;47.788;11.858;2022-12-10T05:51:25;-0.10;99.90
26990;DHT22;14537;47.788;11.858;2022-12-10T05:53:51;-0.20;99.90
26990;DHT22;14537;47.788;11.858;2022-12-10T05:56:19;-0.20;99.90
26990;DHT22;14537;47.788;11.858;2022-12-10T05:58:47;-0.20;99.90
26990;DHT22;14537;47.788;11.858;2022-12-10T06:01:15;-0.20;99.90
26990;DHT22;14537;47.788;11.858;2022-12-10T06:03:41;-0.20;99.90
26990;DHT22;14537;47.788;11.858;2022-12-10T06:06:08;-0.10;99.90
26990;DHT22;14537;47.788;11.858;2022-12-10T06:08:35;-0.10;99.90
26990;DHT22;14537;47.788;11.858;2022-12-10T06:11:06;-0.10;99.90
26990;DHT22;14537;47.788;11.858;2022-12-10T06:13:32;-0.10;99.90
26990;DHT22;14537;47.788;11.858;2022-12-10T06:15:58;-0.10;99.90
26990;DHT22;14537;47.788;11.858;2022-12-10T06:18:23;-0.10;99.90
26990;DHT22;14537;47.788;11.858;2022-12-10T06:20:49;-0.10;99.90
26990;DHT22;14537;47.788;11.858;2022-12-10T06:23:15;-0.10;99.90
26990;DHT22;14537;47.788;11.858;2022-12-10T06:25:40;-0.10;99.90
26990;DHT22;14537;47.788;11.858;2022-12-10T06:28:07;-0.10;99.90
26990;DHT22;14537;47.788;11.858;2022-12-10T06:30:33;-0.10;99.90
26990;DHT22;14537;47.788;11.858;2022-12-10T06:32:59;-0.10;99.90
26990;DHT22;14537;47.788;11.858;2022-12-10T06:35:25;-0.10;99.90
26990;DHT22;14537;47.788;11.858;2022-12-10T06:37:51;-0.10;99.90
26990;DHT22;14537;47.788;11.858;2022-12-10T06:40:17;-0.10;99.90
26990;DHT22;14537;47.788;11.858;2022-12-10T06:42:43;-0.10;99.90
26990;DHT22;14537;47.788;11.858;2022-12-10T06:45:09;-0.10;99.90
26990;DHT22;14537;47.788;11.858;2022-12-10T06:47:35;-0.10;99.90
26990;DHT22;14537;47.788;11.858;2022-12-10T06:50:01;-0.10;99.90
26990;DHT22;14537;47.788;11.858;2022-12-10T06:52:26;-0.10;99.90
26990;DHT22;14537;47.788;11.858;2022-12-10T06:54:52;-0.20;99.90
26990;DHT22;14537;47.788;11.858;2022-12-10T06:57:19;-0.20;99.90
26990;DHT22;14537;47.788;11.858;2022-12-10T06:59:45;-0.20;99.90
26990;DHT22;14537;47.788;11.858;2022-12-10T07:02:11;-0.10;99.90
26990;DHT22;14537;47.788;11.858;2022-12-10T07:04:36;-0.10;99.90
26990;DHT22;14537;47.788;11.858;2022-12-10T07:07:02;-0.10;99.90
26990;DHT22;14537;47.788;11.858;2022-12-10T07:09:28;-0.10;99.90
26990;DHT22;14537;47.788;11.858;2022-12-10T07:11:53;-0.10;99.90
26990;DHT22;14537;47.788;11.858;2022-12-10T07:14:20;-0.10;99.90
26990;DHT22;14537;47.788;11.858;2022-12-10T07:16:46;-0.10;99.90
26990;DHT22;14537;47.788;11.858;2022-12-10T07:19:12;-0.10;99.90
26990;DHT22;14537;47.788;11.858;2022-12-10T07:21:40;-0.10;99.90
26990;DHT22;14537;47.788;11.858;2022-12-10T07:24:17;0.00;99.90
26990;DHT22;14537;47.788;11.858;2022-12-10T07:26:44;0.00;99.90
26990;DHT22;14537;47.788;11.858;2022-12-10T07:29:19;-0.10;99.90
26990;DHT22;14537;47.788;11.858;2022-12-10T07:31:46;-0.10;99.90
26990;DHT22;14537;47.788;11.858;2022-12-10T07:34:13;0.00;99.90
26990;DHT22;14537;47.788;11.858;2022-12-10T07:36:39;-0.10;99.90
26990;DHT22;14537;47.788;11.858;2022-12-10T07:39:06;0.00;99.90
26990;DHT22;14537;47.788;11.858;2022-12-10T07:41:32;0.00;99.90
26990;DHT22;14537;47.788;11.858;2022-12-10T07:43:58;0.00;99.90
26990;DHT22;14537;47.788;11.858;2022-12-10T07:46:26;0.00;99.90
26990;DHT22;14537;47.788;11.858;2022-12-10T07:48:52;0.00;99.90
26990;DHT22;14537;47.788;11.858;2022-12-10T07:51:20;0.10;99.90
26990;DHT22;14537;47.788;11.858;2022-12-10T07:53:47;0.10;99.90
26990;DHT22;14537;47.788;11.858;2022-12-10T07:56:13;0.00;99.90
26990;DHT22;14537;47.788;11.858;2022-12-10T07:58:43;0.10;99.90
26990;DHT22;14537;47.788;11.858;2022-12-10T08:01:11;0.10;99.90
26990;DHT22;14537;47.788;11.858;2022-12-10T08:03:37;0.10;99.90
26990;DHT22;14537;47.788;11.858;2022-12-10T08:06:14;0.10;99.90
26990;DHT22;14537;47.788;11.858;2022-12-10T08:08:42;0.10;99.90
26990;DHT22;14537;47.788;11.858;2022-12-10T08:11:08;0.10;99.90
26990;DHT22;14537;47.788;11.858;2022-12-10T08:13:35;0.20;99.90
26990;DHT22;14537;47.788;11.858;2022-12-10T08:16:05;0.20;99.90
26990;DHT22;14537;47.788;11.858;2022-12-10T08:18:32;0.20;99.90
26990;DHT22;14537;47.788;11.858;2022-12-10T08:20:58;0.20;99.90
26990;DHT22;14537;47.788;11.858;2022-12-10T08:23:24;0.20;99.90
26990;DHT22;14537;47.788;11.858;2022-12-10T08:25:49;0.20;99.90
26990;DHT22;14537;47.788;11.858;2022-12-10T08:28:15;0.20;99.90
26990;DHT22;14537;47.788;11.858;2022-12-10T08:30:46;0.20;99.90
26990;DHT22;14537;47.788;11.858;2022-12-10T08:33:12;0.20;99.90
26990;DHT22;14537;47.788;11.858;2022-12-10T08:35:37;0.20;99.90
26990;DHT22;14537;47.788;11.858;2022-12-10T08:38:03;0.20;99.90
26990;DHT22;14537;47.788;11.858;2022-12-10T08:40:29;0.20;99.90
26990;DHT22;14537;47.788;11.858;2022-12-10T08:42:54;0.30;99.90
26990;DHT22;14537;47.788;11.858;2022-12-10T08:45:20;0.30;99.90
26990;DHT22;14537;47.788;11.858;2022-12-10T08:47:46;0.20;99.90
26990;DHT22;14537;47.788;11.858;2022-12-10T08:50:11;0.20;99.90
26990;DHT22;14537;47.788;11.858;2022-12-10T08:52:37;0.20;99.90
26990;DHT22;14537;47.788;11.858;2022-12-10T08:55:04;0.30;99.90
26990;DHT22;14537;47.788;11.858;2022-12-10T08:57:30;0.30;99.90
26990;DHT22;14537;47.788;11.858;2022-12-10T08:59:55;0.40;99.90
26990;DHT22;14537;47.788;11.858;2022-12-10T09:02:21;0.40;99.90
26990;DHT22;14537;47.788;11.858;2022-12-10T09:04:47;0.40;99.90
26990;DHT22;14537;47.788;11.858;2022-12-10T09:07:14;0.40;99.90
26990;DHT22;14537;47.788;11.858;2022-12-10T09:09:40;0.50;99.90
26990;DHT22;14537;47.788;11.858;2022-12-10T09:12:05;0.40;99.90
26990;DHT22;14537;47.788;11.858;2022-12-10T09:14:32;0.50;99.90
26990;DHT22;14537;47.788;11.858;2022-12-10T09:16:57;0.50;99.90
26990;DHT22;14537;47.788;11.858;2022-12-10T09:19:23;0.50;99.90
26990;DHT22;14537;47.788;11.858;2022-12-10T09:21:49;0.60;99.90
26990;DHT22;14537;47.788;11.858;2022-12-10T09:24:14;0.60;99.90
26990;DHT22;14537;47.788;11.858;2022-12-10T09:26:40;0.60;99.90
26990;DHT22;14537;47.788;11.858;2022-12-10T09:29:05;0.60;99.90
26990;DHT22;14537;47.788;11.858;2022-12-10T09:31:31;0.60;99.90
26990;DHT22;14537;47.788;11.858;2022-12-10T09:33:57;0.60;99.90
26990;DHT22;14537;47.788;11.858;2022-12-10T09:36:22;0.70;99.90
26990;DHT22;14537;47.788;11.858;2022-12-10T09:38:48;0.70;99.90
26990;DHT22;14537;47.788;11.858;2022-12-10T09:43:48;0.70;99.90
26990;DHT22;14537;47.788;11.858;2022-12-10T09:46:23;0.80;99.90
26990;DHT22;14537;47.788;11.858;2022-12-10T09:51:29;0.70;99.90
26990;DHT22;14537;47.788;11.858;2022-12-10T09:53:57;0.70;99.90
26990;DHT22;14537;47.788;11.858;2022-12-10T09:56:30;0.70;99.90
26990;DHT22;14537;47.788;11.858;2022-12-10T09:58:57;0.80;99.90
26990;DHT22;14537;47.788;11.858;2022-12-10T10:01:27;0.80;99.90
26990;DHT22;14537;47.788;11.858;2022-12-10T10:03:54;0.80;99.90
26990;DHT22;14537;47.788;11.858;2022-12-10T10:06:21;0.70;99.90
26990;DHT22;14537;47.788;11.858;2022-12-10T10:08:58;0.80;99.90
26990;DHT22;14537;47.788;11.858;2022-12-10T10:11:32;0.80;99.90
26990;DHT22;14537;47.788;11.858;2022-12-10T10:14:12;0.70;99.90
26990;DHT22;14537;47.788;11.858;2022-12-10T10:16:51;0.60;99.90
26990;DHT22;14537;47.788;11.858;2022-12-10T10:19:24;0.70;99.90
26990;DHT22;14537;47.788;11.858;2022-12-10T10:21:51;0.70;99.90
26990;DHT22;14537;47.788;11.858;2022-12-10T10:24:22;0.60;99.90
26990;DHT22;14537;47.788;11.858;2022-12-10T10:26:52;0.60;99.90
26990;DHT22;14537;47.788;11.858;2022-12-10T10:29:21;0.60;99.90
26990;DHT22;14537;47.788;11.858;2022-12-10T10:34:39;0.40;99.90
26990;DHT22;14537;47.788;11.858;2022-12-10T10:37:05;0.30;99.90
26990;DHT22;14537;47.788;11.858;2022-12-10T10:39:32;0.40;99.90
26990;DHT22;14537;47.788;11.858;2022-12-10T10:42:08;0.40;99.90
26990;DHT22;14537;47.788;11.858;2022-12-10T10:44:37;0.50;99.90
26990;DHT22;14537;47.788;11.858;2022-12-10T10:47:34;0.50;99.90
26990;DHT22;14537;47.788;11.858;2022-12-10T10:50:00;0.50;99.90
26990;DHT22;14537;47.788;11.858;2022-12-10T10:52:34;0.60;99.90
26990;DHT22;14537;47.788;11.858;2022-12-10T10:55:00;0.60;99.90
26990;DHT22;14537;47.788;11.858;2022-12-10T11:00:10;0.70;99.90
26990;DHT22;14537;47.788;11.858;2022-12-10T11:02:42;0.70;99.90
26990;DHT22;14537;47.788;11.858;2022-12-10T11:05:22;0.70;99.90
26990;DHT22;14537;47.788;11.858;2022-12-10T11:08:03;0.70;99.90
26990;DHT22;14537;47.788;11.858;2022-12-10T11:10:30;0.70;99.90
26990;DHT22;14537;47.788;11.858;2022-12-10T11:15:44;0.80;99.90
26990;DHT22;14537;47.788;11.858;2022-12-10T11:21:03;0.70;99.90
26990;DHT22;14537;47.788;11.858;2022-12-10T11:23:32;0.70;99.90
26990;DHT22;14537;47.788;11.858;2022-12-10T11:28:54;0.70;99.90
26990;DHT22;14537;47.788;11.858;2022-12-10T11:37:36;0.70;99.90
26990;DHT22;14537;47.788;11.858;2022-12-10T11:43:26;0.60;99.90
26990;DHT22;14537;47.788;11.858;2022-12-10T12:00:25;0.10;99.90
26990;DHT22;14537;47.788;11.858;2022-12-10T12:11:41;0.40;99.90
26990;DHT22;14537;47.788;11.858;2022-12-10T12:14:26;0.40;99.90
26990;DHT22;14537;47.788;11.858;2022-12-10T12:17:12;0.40;99.90
26990;DHT22;14537;47.788;11.858;2022-12-10T12:23:01;0.40;99.90
26990;DHT22;14537;47.788;11.858;2022-12-10T12:26:04;0.40;99.90
26990;DHT22;14537;47.788;11.858;2022-12-10T12:28:57;0.30;99.90
26990;DHT22;14537;47.788;11.858;2022-12-10T12:31:43;0.20;99.90
26990;DHT22;14537;47.788;11.858;2022-12-10T12:37:01;0.20;99.90
26990;DHT22;14537;47.788;11.858;2022-12-10T12:39:38;0.30;99.90
26990;DHT22;14537;47.788;11.858;2022-12-10T12:42:12;0.30;99.90
26990;DHT22;14537;47.788;11.858;2022-12-10T12:49:54;0.40;99.90
26990;DHT22;14537;47.788;11.858;2022-12-10T12:54:57;0.40;99.90
26990;DHT22;14537;47.788;11.858;2022-12-10T12:57:36;0.40;99.90
26990;DHT22;14537;47.788;11.858;2022-12-10T13:00:15;0.40;99.90
26990;DHT22;14537;47.788;11.858;2022-12-10T13:03:00;0.40;99.90
26990;DHT22;14537;47.788;11.858;2022-12-10T13:05:33;0.20;99.90
26990;DHT22;14537;47.788;11.858;2022-12-10T13:08:23;0.20;99.90
26990;DHT22;14537;47.788;11.858;2022-12-10T13:13:39;0.20;99.90
26990;DHT22;14537;47.788;11.858;2022-12-10T13:24:25;0.00;99.90
26990;DHT22;14537;47.788;11.858;2022-12-10T13:27:32;0.20;99.90
26990;DHT22;14537;47.788;11.858;2022-12-10T13:32:53;0.10;99.90
26990;DHT22;14537;47.788;11.858;2022-12-10T13:35:29;0.10;99.90
26990;DHT22;14537;47.788;11.858;2022-12-10T13:37:59;-0.10;99.90
26990;DHT22;14537;47.788;11.858;2022-12-10T13:49:00;0.00;99.90
26990;DHT22;14537;47.788;11.858;2022-12-10T14:05:27;-0.30;99.90
26990;DHT22;14537;47.788;11.858;2022-12-10T14:08:00;-0.30;99.90
26990;DHT22;14537;47.788;11.858;2022-12-10T14:10:32;-0.20;99.90
26990;DHT22;14537;47.788;11.858;2022-12-10T14:13:01;-0.20;99.90
26990;DHT22;14537;47.788;11.858;2022-12-10T14:15:27;-0.30;99.90
26990;DHT22;14537;47.788;11.858;2022-12-10T14:18:18;-0.20;99.90
26990;DHT22;14537;47.788;11.858;2022-12-10T14:20:46;-0.20;99.90
26990;DHT22;14537;47.788;11.858;2022-12-10T14:23:33;-0.20;99.90
26990;DHT22;14537;47.788;11.858;2022-12-10T14:26:11;-0.10;99.90
26990;DHT22;14537;47.788;11.858;2022-12-10T14:28:46;-0.20;99.90
26990;DHT22;14537;47.788;11.858;2022-12-10T14:31:21;-0.20;99.90
26990;DHT22;14537;47.788;11.858;2022-12-10T14:33:49;-0.30;99.90
26990;DHT22;14537;47.788;11.858;2022-12-10T14:36:38;-0.40;99.90
26990;DHT22;14537;47.788;11.858;2022-12-10T14:39:03;-0.40;99.90
26990;DHT22;14537;47.788;11.858;2022-12-10T14:41:31;-0.30;99.90
26990;DHT22;14537;47.788;11.858;2022-12-10T14:44:01;-0.40;99.90
26990;DHT22;14537;47.788;11.858;2022-12-10T14:46:30;-0.40;99.90
26990;DHT22;14537;47.788;11.858;2022-12-10T14:48:56;-0.50;99.90
26990;DHT22;14537;47.788;11.858;2022-12-10T14:51:25;-0.40;99.90
26990;DHT22;14537;47.788;11.858;2022-12-10T14:53:52;-0.50;99.90
26990;DHT22;14537;47.788;11.858;2022-12-10T14:56:35;-0.50;99.90
26990;DHT22;14537;47.788;11.858;2022-12-10T15:01:40;-0.50;99.90
26990;DHT22;14537;47.788;11.858;2022-12-10T15:04:13;-0.50;99.90
26990;DHT22;14537;47.788;11.858;2022-12-10T15:06:38;-0.50;99.90
26990;DHT22;14537;47.788;11.858;2022-12-10T15:09:06;-0.50;99.90
26990;DHT22;14537;47.788;11.858;2022-12-10T15:11:34;-0.60;99.90
26990;DHT22;14537;47.788;11.858;2022-12-10T15:14:02;-0.60;99.90
26990;DHT22;14537;47.788;11.858;2022-12-10T15:16:46;-0.60;99.90
26990;DHT22;14537;47.788;11.858;2022-12-10T15:19:23;-0.60;99.90
26990;DHT22;14537;47.788;11.858;2022-12-10T15:21:51;-0.60;99.90
26990;DHT22;14537;47.788;11.858;2022-12-10T15:24:38;-0.60;99.90
26990;DHT22;14537;47.788;11.858;2022-12-10T15:27:35;-0.70;99.90
26990;DHT22;14537;47.788;11.858;2022-12-10T15:30:21;-0.70;99.90
26990;DHT22;14537;47.788;11.858;2022-12-10T15:32:48;-0.60;99.90
26990;DHT22;14537;47.788;11.858;2022-12-10T15:35:15;-0.50;99.90
26990;DHT22;14537;47.788;11.858;2022-12-10T15:37:41;-0.60;99.90
26990;DHT22;14537;47.788;11.858;2022-12-10T15:43:28;-0.60;99.90
26990;DHT22;14537;47.788;11.858;2022-12-10T15:45:55;-0.60;99.90
26990;DHT22;14537;47.788;11.858;2022-12-10T15:48:20;-0.70;99.90
26990;DHT22;14537;47.788;11.858;2022-12-10T15:50:47;-0.60;99.90
26990;DHT22;14537;47.788;11.858;2022-12-10T15:53:21;-0.60;99.90
26990;DHT22;14537;47.788;11.858;2022-12-10T15:55:49;-0.60;99.90
26990;DHT22;14537;47.788;11.858;2022-12-10T15:58:15;-0.60;99.90
26990;DHT22;14537;47.788;11.858;2022-12-10T16:00:41;-0.60;99.90
26990;DHT22;14537;47.788;11.858;2022-12-10T16:03:16;-0.60;99.90
26990;DHT22;14537;47.788;11.858;2022-12-10T16:05:43;-0.50;99.90
26990;DHT22;14537;47.788;11.858;2022-12-10T16:10:46;-0.60;99.90
26990;DHT22;14537;47.788;11.858;2022-12-10T16:13:24;-0.60;99.90
26990;DHT22;14537;47.788;11.858;2022-12-10T16:15:51;-0.60;99.90
26990;DHT22;14537;47.788;11.858;2022-12-10T16:18:18;-0.60;99.90
26990;DHT22;14537;47.788;11.858;2022-12-10T16:20:43;-0.60;99.90
26990;DHT22;14537;47.788;11.858;2022-12-10T16:23:09;-0.60;99.90
26990;DHT22;14537;47.788;11.858;2022-12-10T16:25:37;-0.60;99.90
26990;DHT22;14537;47.788;11.858;2022-12-10T16:28:03;-0.60;99.90
26990;DHT22;14537;47.788;11.858;2022-12-10T16:30:31;-0.60;99.90
26990;DHT22;14537;47.788;11.858;2022-12-10T16:32:58;-0.60;99.90
26990;DHT22;14537;47.788;11.858;2022-12-10T16:35:23;-0.60;99.90
26990;DHT22;14537;47.788;11.858;2022-12-10T16:37:49;-0.60;99.90
26990;DHT22;14537;47.788;11.858;2022-12-10T16:40:21;-0.70;99.90
26990;DHT22;14537;47.788;11.858;2022-12-10T16:42:47;-0.70;99.90
26990;DHT22;14537;47.788;11.858;2022-12-10T16:45:20;-0.60;99.90
26990;DHT22;14537;47.788;11.858;2022-12-10T16:47:46;-0.50;99.90
26990;DHT22;14537;47.788;11.858;2022-12-10T16:50:13;-0.60;99.90
26990;DHT22;14537;47.788;11.858;2022-12-10T16:52:40;-0.60;99.90
26990;DHT22;14537;47.788;11.858;2022-12-10T16:55:07;-0.60;99.90
26990;DHT22;14537;47.788;11.858;2022-12-10T16:57:33;-0.60;99.90
26990;DHT22;14537;47.788;11.858;2022-12-10T16:59:59;-0.60;99.90
26990;DHT22;14537;47.788;11.858;2022-12-10T17:02:24;-0.70;99.90
26990;DHT22;14537;47.788;11.858;2022-12-10T17:04:50;-0.90;99.90
26990;DHT22;14537;47.788;11.858;2022-12-10T17:07:16;-0.90;99.90
26990;DHT22;14537;47.788;11.858;2022-12-10T17:09:41;-0.90;99.90
26990;DHT22;14537;47.788;11.858;2022-12-10T17:12:10;-0.90;99.90
26990;DHT22;14537;47.788;11.858;2022-12-10T17:14:41;-0.90;99.90
26990;DHT22;14537;47.788;11.858;2022-12-10T17:17:11;-0.80;99.90
26990;DHT22;14537;47.788;11.858;2022-12-10T17:19:38;-0.90;99.90
26990;DHT22;14537;47.788;11.858;2022-12-10T17:22:08;-1.00;99.90
26990;DHT22;14537;47.788;11.858;2022-12-10T17:24:35;-0.90;99.90
26990;DHT22;14537;47.788;11.858;2022-12-10T17:27:07;-0.90;99.90
26990;DHT22;14537;47.788;11.858;2022-12-10T17:29:40;-1.00;99.90
26990;DHT22;14537;47.788;11.858;2022-12-10T17:32:09;-1.00;99.90
26990;DHT22;14537;47.788;11.858;2022-12-10T17:34:36;-1.00;99.90
26990;DHT22;14537;47.788;11.858;2022-12-10T17:37:11;-0.90;99.90
26990;DHT22;14537;47.788;11.858;2022-12-10T17:39:37;-0.80;99.90
26990;DHT22;14537;47.788;11.858;2022-12-10T17:42:03;-0.90;99.90
26990;DHT22;14537;47.788;11.858;2022-12-10T17:44:29;-1.00;99.90
26990;DHT22;14537;47.788;11.858;2022-12-10T17:46:55;-1.00;99.90
26990;DHT22;14537;47.788;11.858;2022-12-10T17:49:20;-1.00;99.90
26990;DHT22;14537;47.788;11.858;2022-12-10T17:51:46;-0.90;99.90